Time;durP1;ratioP1;P1;durP2;ratioP2;P2;SDS_P1;SDS_P2;PMS_P1;PMS_P2;Temp;Humidity;BMP_temperature;BMP_pressure;BME280_temperature;BME280_humidity;BME280_pressure;Samples;Min_cycle;Max_cycle;Signal;HPM_P1;HPM_P2
2023/05/02 00:01:40;;;;;;;;;;;12.60;99.90;;;;;;4948151;28;19926;-74
2023/05/02 00:04:06;;;;;;;;;;;12.60;99.90;;;;;;4946227;28;19914;-75
2023/05/02 00:06:31;;;;;;;;;;;12.60;99.90;;;;;;4949681;28;19914;-74
2023/05/02 00:08:57;;;;;;;;;;;12.60;99.90;;;;;;4949883;28;19921;-73
2023/05/02 00:11:23;;;;;;;;;;;12.60;99.90;;;;;;4969349;28;19921;-72
2023/05/02 00:13:49;;;;;;;;;;;12.50;99.90;;;;;;4951649;28;20005;-73
2023/05/02 00:16:15;;;;;;;;;;;12.50;99.90;;;;;;4948455;28;19914;-73
2023/05/02 00:18:40;;;;;;;;;;;12.60;99.90;;;;;;4951969;28;19996;-75
2023/05/02 00:21:07;;;;;;;;;;;12.50;99.90;;;;;;4946836;28;19910;-75
2023/05/02 00:23:33;;;;;;;;;;;12.60;99.90;;;;;;4945082;28;19921;-73
2023/05/02 00:25:58;;;;;;;;;;;12.60;99.90;;;;;;4929402;28;19914;-73
2023/05/02 00:28:25;;;;;;;;;;;12.50;99.90;;;;;;4949726;28;19918;-75
2023/05/02 00:30:51;;;;;;;;;;;12.60;99.90;;;;;;4951550;28;19910;-74
2023/05/02 00:33:19;;;;;;;;;;;12.70;99.90;;;;;;4943281;28;19919;-73
2023/05/02 00:35:45;;;;;;;;;;;12.50;99.90;;;;;;4948767;28;20030;-73
2023/05/02 00:38:10;;;;;;;;;;;12.50;99.90;;;;;;4949990;28;20413;-76
2023/05/02 00:40:46;;;;;;;;;;;12.50;99.90;;;;;;4947186;28;19910;-74
2023/05/02 00:43:12;;;;;;;;;;;12.50;99.90;;;;;;4949103;28;20412;-73
2023/05/02 00:45:42;;;;;;;;;;;12.50;99.90;;;;;;4946559;28;19914;-72
2023/05/02 00:48:08;;;;;;;;;;;12.50;99.90;;;;;;4943762;28;19910;-74
2023/05/02 00:50:39;;;;;;;;;;;12.50;99.90;;;;;;4946041;28;19914;-74
2023/05/02 00:53:05;;;;;;;;;;;12.50;99.90;;;;;;4945052;28;20029;-72
2023/05/02 00:55:32;;;;;;;;;;;12.50;99.90;;;;;;4949047;28;19914;-75
2023/05/02 00:57:59;;;;;;;;;;;12.60;99.90;;;;;;4948681;28;19997;-74
2023/05/02 01:00:36;;;;;;;;;;;12.50;99.90;;;;;;4950599;28;19914;-73
2023/05/02 01:03:08;;;;;;;;;;;12.50;99.90;;;;;;4950529;28;19914;-75
2023/05/02 01:05:39;;;;;;;;;;;12.50;99.90;;;;;;4947788;28;19917;-73
2023/05/02 01:08:09;;;;;;;;;;;12.50;99.90;;;;;;4951014;28;20647;-74
2023/05/02 01:10:44;;;;;;;;;;;12.40;99.90;;;;;;4964798;28;20366;-73
2023/05/02 01:13:16;;;;;;;;;;;12.40;99.90;;;;;;4968511;28;19914;-73
2023/05/02 01:15:44;;;;;;;;;;;12.50;99.90;;;;;;4950412;28;19923;-72
2023/05/02 01:18:10;;;;;;;;;;;12.50;99.90;;;;;;4953111;28;19920;-75
2023/05/02 01:20:40;;;;;;;;;;;12.40;99.90;;;;;;4934228;28;19925;-78
2023/05/02 01:23:08;;;;;;;;;;;12.40;99.90;;;;;;4951679;28;19914;-75
2023/05/02 01:25:36;;;;;;;;;;;12.50;99.90;;;;;;4949674;28;20017;-75
2023/05/02 01:28:15;;;;;;;;;;;12.40;99.90;;;;;;4949311;28;19914;-73
2023/05/02 01:30:45;;;;;;;;;;;12.40;99.90;;;;;;4950950;28;19910;-74
2023/05/02 01:33:12;;;;;;;;;;;12.30;99.90;;;;;;4952191;28;20306;-72
2023/05/02 01:35:38;;;;;;;;;;;12.30;99.90;;;;;;4946861;28;19915;-72
2023/05/02 01:38:05;;;;;;;;;;;12.30;99.90;;;;;;4938904;29;19966;-75
2023/05/02 01:40:31;;;;;;;;;;;12.20;99.90;;;;;;4950494;28;19921;-73
2023/05/02 01:42:57;;;;;;;;;;;12.20;99.90;;;;;;4951610;28;19922;-75
2023/05/02 01:45:24;;;;;;;;;;;12.20;99.90;;;;;;4953099;28;20001;-73
2023/05/02 01:47:50;;;;;;;;;;;12.20;99.90;;;;;;4952252;28;20390;-73
2023/05/02 01:50:20;;;;;;;;;;;12.20;99.90;;;;;;4951520;28;19997;-73
2023/05/02 01:52:48;;;;;;;;;;;12.20;99.90;;;;;;4952759;28;19911;-73
2023/05/02 01:55:14;;;;;;;;;;;12.20;99.90;;;;;;4948811;28;19964;-72
2023/05/02 01:57:42;;;;;;;;;;;12.10;99.90;;;;;;4968628;28;19985;-72
2023/05/02 02:00:08;;;;;;;;;;;12.00;99.90;;;;;;4936061;28;19914;-72
2023/05/02 02:02:36;;;;;;;;;;;12.00;99.90;;;;;;4952925;28;19992;-72
2023/05/02 02:05:03;;;;;;;;;;;12.00;99.90;;;;;;4950219;28;20050;-72
2023/05/02 02:07:29;;;;;;;;;;;12.00;99.90;;;;;;4946095;28;19950;-72
2023/05/02 02:09:55;;;;;;;;;;;12.00;99.90;;;;;;4949819;28;20016;-73
2023/05/02 02:12:34;;;;;;;;;;;12.00;99.90;;;;;;4949920;28;19911;-72
2023/05/02 02:15:07;;;;;;;;;;;12.00;99.90;;;;;;4949688;28;20394;-74
2023/05/02 02:17:42;;;;;;;;;;;12.00;99.90;;;;;;4951385;28;19914;-75
2023/05/02 02:20:09;;;;;;;;;;;12.00;99.90;;;;;;4950261;28;19999;-74
2023/05/02 02:22:36;;;;;;;;;;;12.00;99.90;;;;;;4951044;28;19917;-75
2023/05/02 02:25:05;;;;;;;;;;;11.80;99.90;;;;;;4952887;28;19957;-73
2023/05/02 02:27:30;;;;;;;;;;;11.80;99.90;;;;;;4964413;28;19914;-72
2023/05/02 02:29:56;;;;;;;;;;;11.80;99.90;;;;;;4945740;28;20394;-72
2023/05/02 02:32:23;;;;;;;;;;;11.80;99.90;;;;;;4948453;28;19914;-74
2023/05/02 02:34:49;;;;;;;;;;;11.80;99.90;;;;;;4948534;28;20575;-72
2023/05/02 02:37:18;;;;;;;;;;;11.80;99.90;;;;;;4951529;28;20298;-73
2023/05/02 02:39:50;;;;;;;;;;;11.70;99.90;;;;;;4945241;28;20429;-72
2023/05/02 02:42:25;;;;;;;;;;;11.70;99.90;;;;;;4947833;28;19915;-75
2023/05/02 02:45:05;;;;;;;;;;;11.60;99.90;;;;;;4946726;28;19939;-74
2023/05/02 02:47:35;;;;;;;;;;;11.60;99.90;;;;;;4928734;28;19942;-74
2023/05/02 02:50:07;;;;;;;;;;;11.50;99.90;;;;;;4949118;28;19969;-73
2023/05/02 02:52:54;;;;;;;;;;;11.30;99.90;;;;;;4962110;28;19911;-75
2023/05/02 02:55:33;;;;;;;;;;;11.30;99.90;;;;;;4948418;28;20353;-73
2023/05/02 02:58:17;;;;;;;;;;;11.20;99.90;;;;;;4967540;28;19914;-72
2023/05/02 03:00:43;;;;;;;;;;;11.20;99.90;;;;;;4949839;28;19915;-74
2023/05/02 03:03:10;;;;;;;;;;;11.20;99.90;;;;;;4946699;28;20291;-72
2023/05/02 03:05:36;;;;;;;;;;;11.20;99.90;;;;;;4945542;28;19914;-79
2023/05/02 03:08:02;;;;;;;;;;;11.20;99.90;;;;;;4962847;28;20498;-71
2023/05/02 03:10:27;;;;;;;;;;;11.00;99.90;;;;;;4949778;28;20295;-72
2023/05/02 03:12:54;;;;;;;;;;;10.90;99.90;;;;;;4950337;28;19914;-73
2023/05/02 03:15:20;;;;;;;;;;;10.80;99.90;;;;;;4945508;28;19915;-73
2023/05/02 03:17:45;;;;;;;;;;;10.80;99.90;;;;;;4936177;28;19922;-73
2023/05/02 03:20:13;;;;;;;;;;;10.70;99.90;;;;;;4947028;28;19997;-74
2023/05/02 03:22:39;;;;;;;;;;;10.60;99.90;;;;;;4949485;28;19910;-74
2023/05/02 03:25:05;;;;;;;;;;;10.60;99.90;;;;;;4949044;28;19921;-74
2023/05/02 03:27:30;;;;;;;;;;;10.60;99.90;;;;;;4952088;28;19973;-73
2023/05/02 03:29:56;;;;;;;;;;;10.60;99.90;;;;;;4945239;28;19953;-73
2023/05/02 03:32:22;;;;;;;;;;;10.60;99.90;;;;;;4951884;28;19914;-71
2023/05/02 03:34:47;;;;;;;;;;;10.50;99.90;;;;;;4955545;28;20024;-73
2023/05/02 03:37:13;;;;;;;;;;;10.40;99.90;;;;;;4954602;28;19914;-72
2023/05/02 03:39:38;;;;;;;;;;;10.40;99.90;;;;;;4948118;28;19946;-74
2023/05/02 03:42:04;;;;;;;;;;;10.40;99.90;;;;;;4947054;28;19914;-72
2023/05/02 03:44:30;;;;;;;;;;;10.30;99.90;;;;;;4948079;28;20398;-73
2023/05/02 03:46:55;;;;;;;;;;;10.40;99.90;;;;;;4948973;28;19994;-72
2023/05/02 03:49:21;;;;;;;;;;;10.30;99.90;;;;;;4946975;28;19910;-71
2023/05/02 03:51:46;;;;;;;;;;;10.20;99.90;;;;;;4931337;28;19914;-72
2023/05/02 03:54:12;;;;;;;;;;;10.10;99.90;;;;;;4949054;28;19924;-73
2023/05/02 03:56:38;;;;;;;;;;;10.10;99.90;;;;;;4962424;28;19917;-74
2023/05/02 03:59:04;;;;;;;;;;;10.10;99.90;;;;;;4952154;28;20298;-73
2023/05/02 04:01:30;;;;;;;;;;;10.10;99.90;;;;;;4946818;28;19938;-75
2023/05/02 04:03:56;;;;;;;;;;;10.10;99.90;;;;;;4945600;28;20353;-73
2023/05/02 04:06:21;;;;;;;;;;;10.00;99.90;;;;;;4964309;28;19914;-75
2023/05/02 04:08:47;;;;;;;;;;;10.00;99.90;;;;;;4949663;28;20069;-72
2023/05/02 04:11:13;;;;;;;;;;;9.80;99.90;;;;;;4947730;28;20390;-74
2023/05/02 04:13:39;;;;;;;;;;;9.80;99.90;;;;;;4947470;28;20326;-72
2023/05/02 04:16:04;;;;;;;;;;;9.80;99.90;;;;;;4949199;28;19914;-74
2023/05/02 04:18:30;;;;;;;;;;;9.80;99.90;;;;;;4949848;28;19910;-73
2023/05/02 04:20:56;;;;;;;;;;;9.80;99.90;;;;;;4961779;28;19917;-75
2023/05/02 04:23:21;;;;;;;;;;;9.90;99.90;;;;;;4945721;28;19910;-77
2023/05/02 04:25:51;;;;;;;;;;;9.90;99.90;;;;;;4944566;28;19910;-74
2023/05/02 04:28:16;;;;;;;;;;;9.80;99.90;;;;;;4947225;28;19910;-71
2023/05/02 04:30:42;;;;;;;;;;;9.90;99.90;;;;;;4949182;28;19993;-73
2023/05/02 04:33:07;;;;;;;;;;;9.90;99.90;;;;;;4948341;28;19915;-73
2023/05/02 04:35:33;;;;;;;;;;;10.10;99.90;;;;;;4949147;28;19922;-73
2023/05/02 04:37:58;;;;;;;;;;;10.00;99.90;;;;;;4967637;28;19915;-74
2023/05/02 04:40:24;;;;;;;;;;;9.90;99.90;;;;;;4952421;28;19919;-73
2023/05/02 04:42:51;;;;;;;;;;;9.80;99.90;;;;;;4950141;28;19943;-73
2023/05/02 04:45:16;;;;;;;;;;;9.80;99.90;;;;;;4951775;28;20537;-75
2023/05/02 04:47:42;;;;;;;;;;;9.60;99.90;;;;;;4950877;28;19910;-74
2023/05/02 04:50:09;;;;;;;;;;;9.60;99.90;;;;;;4952388;28;19910;-75
2023/05/02 04:52:34;;;;;;;;;;;9.60;99.90;;;;;;4950377;28;20365;-73
2023/05/02 04:55:00;;;;;;;;;;;9.60;99.90;;;;;;4953099;28;19921;-72
2023/05/02 04:57:26;;;;;;;;;;;9.70;99.90;;;;;;4949001;28;19956;-72
2023/05/02 04:59:51;;;;;;;;;;;9.70;99.90;;;;;;4952959;28;19910;-75
2023/05/02 05:02:17;;;;;;;;;;;9.80;99.90;;;;;;4948415;28;19914;-75
2023/05/02 05:04:44;;;;;;;;;;;9.80;99.90;;;;;;4948118;28;19910;-72
2023/05/02 05:07:10;;;;;;;;;;;10.10;99.90;;;;;;4955256;28;19988;-74
2023/05/02 05:09:35;;;;;;;;;;;9.80;99.90;;;;;;4947667;28;20303;-71
2023/05/02 05:12:01;;;;;;;;;;;9.80;99.90;;;;;;4946921;28;19918;-74
2023/05/02 05:14:27;;;;;;;;;;;9.80;99.90;;;;;;4948685;28;19965;-74
2023/05/02 05:16:53;;;;;;;;;;;9.80;99.90;;;;;;4933105;28;19960;-73
2023/05/02 05:19:18;;;;;;;;;;;9.80;99.90;;;;;;4964040;28;19964;-73
2023/05/02 05:21:44;;;;;;;;;;;9.70;99.90;;;;;;4967288;28;20334;-74
2023/05/02 05:24:09;;;;;;;;;;;9.80;99.90;;;;;;4958178;28;19911;-74
2023/05/02 05:26:35;;;;;;;;;;;9.70;99.90;;;;;;4954997;28;20523;-71
2023/05/02 05:29:00;;;;;;;;;;;9.70;99.90;;;;;;4953270;28;20009;-73
2023/05/02 05:31:26;;;;;;;;;;;9.70;99.90;;;;;;4953239;28;20298;-73
2023/05/02 05:33:52;;;;;;;;;;;9.60;99.90;;;;;;4956833;28;20016;-73
2023/05/02 05:36:17;;;;;;;;;;;9.60;99.90;;;;;;4950344;28;19914;-75
2023/05/02 05:38:43;;;;;;;;;;;9.60;99.90;;;;;;4948291;28;19998;-73
2023/05/02 05:41:09;;;;;;;;;;;9.50;99.90;;;;;;4946486;28;19937;-73
2023/05/02 05:43:35;;;;;;;;;;;9.40;99.90;;;;;;4950641;28;19922;-74
2023/05/02 05:46:01;;;;;;;;;;;9.50;99.90;;;;;;4948483;28;19911;-72
2023/05/02 05:48:27;;;;;;;;;;;9.50;99.90;;;;;;4948805;28;20414;-72
2023/05/02 05:50:53;;;;;;;;;;;9.40;99.90;;;;;;4950064;28;19997;-71
2023/05/02 05:53:18;;;;;;;;;;;9.30;99.90;;;;;;4949621;28;20005;-70
2023/05/02 05:55:44;;;;;;;;;;;9.30;99.90;;;;;;4948215;28;19914;-71
2023/05/02 05:58:10;;;;;;;;;;;9.40;99.90;;;;;;4946022;28;21028;-71
2023/05/02 06:00:38;;;;;;;;;;;9.40;99.90;;;;;;4948282;28;19915;-71
2023/05/02 06:03:05;;;;;;;;;;;9.50;99.90;;;;;;4947571;28;19917;-71
2023/05/02 06:05:31;;;;;;;;;;;9.30;99.90;;;;;;4952678;28;19914;-71
2023/05/02 06:07:57;;;;;;;;;;;9.30;99.90;;;;;;4949594;28;19941;-72
2023/05/02 06:10:22;;;;;;;;;;;9.30;99.90;;;;;;4947543;28;20354;-72
2023/05/02 06:12:48;;;;;;;;;;;9.30;99.90;;;;;;4952194;28;20377;-72
2023/05/02 06:15:14;;;;;;;;;;;9.20;99.90;;;;;;4950113;28;19921;-72
2023/05/02 06:17:39;;;;;;;;;;;9.30;99.90;;;;;;4947626;28;20401;-72
2023/05/02 06:20:06;;;;;;;;;;;9.20;99.90;;;;;;4946216;28;19918;-71
2023/05/02 06:22:35;;;;;;;;;;;9.20;99.90;;;;;;4965999;28;19922;-73
2023/05/02 06:25:01;;;;;;;;;;;9.30;99.90;;;;;;4948505;28;19968;-71
2023/05/02 06:27:26;;;;;;;;;;;9.40;99.90;;;;;;4949708;28;20009;-72
2023/05/02 06:29:52;;;;;;;;;;;9.30;99.90;;;;;;4952910;28;20374;-71
2023/05/02 06:32:18;;;;;;;;;;;9.30;99.90;;;;;;4947367;28;20101;-70
2023/05/02 06:34:43;;;;;;;;;;;9.40;99.90;;;;;;4941493;28;19915;-71
2023/05/02 06:37:09;;;;;;;;;;;9.30;99.90;;;;;;4948960;28;20002;-74
2023/05/02 06:39:35;;;;;;;;;;;9.30;99.90;;;;;;4951394;28;19997;-71
2023/05/02 06:42:01;;;;;;;;;;;9.30;99.90;;;;;;4951407;28;20337;-71
2023/05/02 06:44:26;;;;;;;;;;;9.40;99.90;;;;;;4951038;28;19910;-70
2023/05/02 06:46:52;;;;;;;;;;;9.30;99.90;;;;;;4950817;28;20270;-71
2023/05/02 06:49:18;;;;;;;;;;;9.40;99.90;;;;;;4949084;28;19918;-72
2023/05/02 06:51:43;;;;;;;;;;;9.50;99.90;;;;;;4965527;28;20314;-71
2023/05/02 06:54:09;;;;;;;;;;;9.40;99.90;;;;;;4950314;28;19957;-70
2023/05/02 06:56:34;;;;;;;;;;;9.40;99.90;;;;;;4964824;28;19953;-70
2023/05/02 06:59:01;;;;;;;;;;;9.30;99.90;;;;;;4948618;28;19918;-70
2023/05/02 07:01:26;;;;;;;;;;;9.30;99.90;;;;;;4950365;28;19956;-71
2023/05/02 07:03:53;;;;;;;;;;;9.40;99.90;;;;;;4952747;28;19911;-70
2023/05/02 07:06:19;;;;;;;;;;;9.40;99.90;;;;;;4949503;28;20001;-70
2023/05/02 07:08:44;;;;;;;;;;;9.30;99.00;;;;;;4947454;28;20518;-70
2023/05/02 07:11:10;;;;;;;;;;;9.30;98.50;;;;;;4947329;28;19973;-70
2023/05/02 07:13:36;;;;;;;;;;;9.40;98.10;;;;;;4950003;28;19914;-70
2023/05/02 07:16:01;;;;;;;;;;;9.30;98.00;;;;;;4949136;28;19929;-70
2023/05/02 07:18:27;;;;;;;;;;;9.30;98.30;;;;;;4946235;28;19915;-70
2023/05/02 07:20:53;;;;;;;;;;;9.40;98.00;;;;;;4948642;28;19910;-70
2023/05/02 07:23:19;;;;;;;;;;;9.50;97.90;;;;;;4945415;28;20405;-70
2023/05/02 07:25:46;;;;;;;;;;;9.50;97.10;;;;;;4950860;28;19921;-71
2023/05/02 07:28:11;;;;;;;;;;;9.50;96.90;;;;;;4947131;28;19910;-71
2023/05/02 07:30:37;;;;;;;;;;;9.50;97.10;;;;;;4952754;28;20429;-71
2023/05/02 07:33:03;;;;;;;;;;;9.50;97.10;;;;;;4947172;28;19921;-71
2023/05/02 07:35:28;;;;;;;;;;;9.60;96.60;;;;;;4949597;28;19960;-70
2023/05/02 07:37:54;;;;;;;;;;;9.50;96.40;;;;;;4949989;28;19995;-70
2023/05/02 07:40:20;;;;;;;;;;;9.50;96.10;;;;;;4950036;28;19910;-70
2023/05/02 07:42:45;;;;;;;;;;;9.60;96.30;;;;;;4948803;28;19914;-70
2023/05/02 07:45:11;;;;;;;;;;;9.60;96.20;;;;;;4949081;28;19907;-70
2023/05/02 07:47:37;;;;;;;;;;;9.60;95.60;;;;;;4949530;28;20029;-70
2023/05/02 07:50:03;;;;;;;;;;;9.60;95.90;;;;;;4949575;28;20012;-71
2023/05/02 07:52:28;;;;;;;;;;;9.60;95.20;;;;;;4948713;28;19910;-70
2023/05/02 07:54:54;;;;;;;;;;;9.60;94.90;;;;;;4950420;28;19918;-70
2023/05/02 07:57:20;;;;;;;;;;;9.60;94.60;;;;;;4951957;28;19906;-70
2023/05/02 07:59:45;;;;;;;;;;;9.60;94.70;;;;;;4945644;28;19922;-69
2023/05/02 08:02:12;;;;;;;;;;;9.60;95.10;;;;;;4951973;28;20362;-70
2023/05/02 08:04:38;;;;;;;;;;;9.70;95.10;;;;;;4947895;28;19917;-69
2023/05/02 08:07:03;;;;;;;;;;;9.80;94.90;;;;;;4946660;28;19919;-70
2023/05/02 08:09:29;;;;;;;;;;;9.70;94.40;;;;;;4949325;28;19918;-69
2023/05/02 08:11:55;;;;;;;;;;;9.70;93.80;;;;;;4955493;28;19914;-70
2023/05/02 08:14:21;;;;;;;;;;;9.80;94.40;;;;;;4954974;28;19918;-69
2023/05/02 08:16:46;;;;;;;;;;;9.90;94.20;;;;;;4954767;28;20651;-69
2023/05/02 08:19:12;;;;;;;;;;;9.90;93.70;;;;;;4952642;28;19922;-69
2023/05/02 08:21:37;;;;;;;;;;;9.90;93.70;;;;;;4954424;28;19906;-71
2023/05/02 08:24:06;;;;;;;;;;;9.90;93.50;;;;;;4953489;28;19982;-71
2023/05/02 08:26:32;;;;;;;;;;;9.90;93.70;;;;;;4956164;28;19913;-71
2023/05/02 08:28:58;;;;;;;;;;;10.00;93.30;;;;;;4950411;28;19910;-71
2023/05/02 08:31:24;;;;;;;;;;;10.00;93.60;;;;;;4949907;28;20008;-70
2023/05/02 08:33:49;;;;;;;;;;;9.90;93.50;;;;;;4951039;28;20350;-71
2023/05/02 08:36:16;;;;;;;;;;;10.00;94.20;;;;;;4949967;28;20114;-71
2023/05/02 08:38:42;;;;;;;;;;;9.90;93.70;;;;;;4949889;28;19946;-73
2023/05/02 08:41:16;;;;;;;;;;;9.90;93.80;;;;;;4954923;28;19965;-72
2023/05/02 08:43:42;;;;;;;;;;;9.90;93.10;;;;;;4938569;28;20542;-71
2023/05/02 08:46:09;;;;;;;;;;;9.90;93.10;;;;;;4953409;28;19918;-71
2023/05/02 08:48:39;;;;;;;;;;;9.90;93.30;;;;;;4960574;28;19948;-71
2023/05/02 08:51:07;;;;;;;;;;;10.00;93.30;;;;;;4954414;28;19917;-70
2023/05/02 08:53:33;;;;;;;;;;;10.10;93.30;;;;;;4950671;28;20568;-69
2023/05/02 08:55:59;;;;;;;;;;;10.10;93.10;;;;;;4951813;28;20005;-72
2023/05/02 08:58:25;;;;;;;;;;;10.20;93.30;;;;;;4955210;28;19918;-71
2023/05/02 09:00:52;;;;;;;;;;;10.30;93.10;;;;;;4950310;28;20631;-70
2023/05/02 09:03:33;;;;;;;;;;;10.30;92.50;;;;;;4950126;28;19910;-70
2023/05/02 09:06:06;;;;;;;;;;;10.40;91.60;;;;;;4932644;28;19917;-71
2023/05/02 09:08:33;;;;;;;;;;;10.50;91.90;;;;;;4954448;28;20378;-69
2023/05/02 09:10:58;;;;;;;;;;;10.60;91.60;;;;;;4953330;28;19918;-73
2023/05/02 09:13:31;;;;;;;;;;;10.70;90.90;;;;;;4932730;28;19969;-71
2023/05/02 09:16:01;;;;;;;;;;;10.70;91.30;;;;;;4948486;28;19922;-75
2023/05/02 09:18:30;;;;;;;;;;;10.80;91.10;;;;;;4954111;28;20380;-72
2023/05/02 09:21:00;;;;;;;;;;;10.90;91.00;;;;;;4947928;28;19914;-69
2023/05/02 09:23:44;;;;;;;;;;;10.80;90.30;;;;;;4950591;28;20025;-69
2023/05/02 09:26:13;;;;;;;;;;;10.90;90.30;;;;;;4950281;28;19914;-70
2023/05/02 09:28:39;;;;;;;;;;;11.10;89.50;;;;;;4957153;28;19941;-72
2023/05/02 09:31:08;;;;;;;;;;;11.20;90.10;;;;;;4954694;28;19993;-71
2023/05/02 09:33:34;;;;;;;;;;;11.30;89.20;;;;;;4953926;28;20248;-71
2023/05/02 09:36:00;;;;;;;;;;;11.30;89.90;;;;;;4967274;28;19972;-70
2023/05/02 09:38:31;;;;;;;;;;;11.20;90.90;;;;;;4938794;28;19910;-71
2023/05/02 09:40:58;;;;;;;;;;;11.10;90.80;;;;;;4954636;28;20268;-72
2023/05/02 09:43:23;;;;;;;;;;;11.10;91.20;;;;;;4952817;28;20390;-70
2023/05/02 09:45:56;;;;;;;;;;;11.20;91.30;;;;;;4952610;28;19918;-70
2023/05/02 09:48:22;;;;;;;;;;;11.30;91.00;;;;;;4952431;28;19914;-70
2023/05/02 09:50:47;;;;;;;;;;;11.40;90.50;;;;;;4953129;28;19981;-71
2023/05/02 09:53:13;;;;;;;;;;;11.70;90.30;;;;;;4951304;28;20166;-70
2023/05/02 09:55:38;;;;;;;;;;;11.80;88.80;;;;;;4952120;28;20388;-71
2023/05/02 09:58:04;;;;;;;;;;;11.80;88.80;;;;;;4952549;28;19918;-70
2023/05/02 10:00:56;;;;;;;;;;;11.70;88.00;;;;;;4965504;28;19910;-71
2023/05/02 10:03:23;;;;;;;;;;;11.60;89.90;;;;;;4948870;28;19914;-70
2023/05/02 10:05:49;;;;;;;;;;;11.60;90.10;;;;;;4954004;28;20012;-69
2023/05/02 10:08:17;;;;;;;;;;;11.50;91.00;;;;;;4949778;28;19911;-69
2023/05/02 10:10:44;;;;;;;;;;;11.50;91.10;;;;;;4953458;28;20425;-69
2023/05/02 10:13:11;;;;;;;;;;;11.60;90.30;;;;;;4954983;28;19910;-70
2023/05/02 10:15:41;;;;;;;;;;;11.60;89.60;;;;;;4947005;28;19914;-70
2023/05/02 10:18:13;;;;;;;;;;;11.60;90.40;;;;;;4950272;28;20410;-69
2023/05/02 10:20:41;;;;;;;;;;;11.60;90.60;;;;;;4952727;28;19918;-72
2023/05/02 10:23:07;;;;;;;;;;;11.60;90.40;;;;;;4942033;28;20510;-73
2023/05/02 10:25:33;;;;;;;;;;;11.50;90.50;;;;;;4945063;28;19993;-75
2023/05/02 10:27:59;;;;;;;;;;;11.50;90.50;;;;;;4953353;28;19915;-72
2023/05/02 10:30:25;;;;;;;;;;;11.70;89.30;;;;;;4949726;28;20287;-70
2023/05/02 10:32:52;;;;;;;;;;;11.80;89.10;;;;;;4945982;28;19911;-72
2023/05/02 10:35:18;;;;;;;;;;;11.80;86.80;;;;;;4945746;28;20421;-71
2023/05/02 10:37:44;;;;;;;;;;;11.80;87.80;;;;;;4946253;28;19918;-71
2023/05/02 10:40:10;;;;;;;;;;;11.80;88.30;;;;;;4948974;28;19910;-69
2023/05/02 10:42:37;;;;;;;;;;;11.80;87.70;;;;;;4949868;28;19921;-71
2023/05/02 10:45:03;;;;;;;;;;;11.70;88.90;;;;;;4950420;28;20301;-72
2023/05/02 10:47:30;;;;;;;;;;;11.60;90.10;;;;;;4949694;28;19916;-72
2023/05/02 10:50:00;;;;;;;;;;;11.60;90.20;;;;;;4950273;28;19922;-73
2023/05/02 10:52:33;;;;;;;;;;;11.40;90.30;;;;;;4943103;28;19915;-72
2023/05/02 10:55:18;;;;;;;;;;;11.50;91.30;;;;;;4943099;28;19922;-72
2023/05/02 10:57:59;;;;;;;;;;;11.70;89.90;;;;;;4942316;28;19914;-72
2023/05/02 11:00:26;;;;;;;;;;;11.80;91.20;;;;;;4959471;28;19915;-72
2023/05/02 11:02:51;;;;;;;;;;;11.90;90.30;;;;;;4949826;28;19911;-72
2023/05/02 11:05:17;;;;;;;;;;;11.90;90.60;;;;;;4946747;28;20042;-72
2023/05/02 11:07:43;;;;;;;;;;;11.90;90.70;;;;;;4951782;28;19960;-71
2023/05/02 11:10:18;;;;;;;;;;;11.80;91.50;;;;;;4949341;28;19914;-72
2023/05/02 11:12:47;;;;;;;;;;;11.70;91.80;;;;;;4949956;28;19910;-69
2023/05/02 11:15:13;;;;;;;;;;;11.90;91.70;;;;;;4942385;28;19978;-69
2023/05/02 11:17:59;;;;;;;;;;;12.80;90.40;;;;;;4950615;28;20381;-70
2023/05/02 11:20:24;;;;;;;;;;;12.80;88.50;;;;;;4948147;28;19918;-69
2023/05/02 11:22:50;;;;;;;;;;;12.50;88.10;;;;;;4951857;28;19918;-69
2023/05/02 11:25:29;;;;;;;;;;;12.20;90.00;;;;;;4953999;28;20020;-68
2023/05/02 11:27:55;;;;;;;;;;;12.10;90.60;;;;;;4958757;28;19921;-69
2023/05/02 11:30:36;;;;;;;;;;;11.90;90.00;;;;;;4950069;28;20326;-69
2023/05/02 11:33:05;;;;;;;;;;;11.90;90.40;;;;;;4949903;28;19918;-69
2023/05/02 11:35:33;;;;;;;;;;;11.90;90.20;;;;;;4949932;28;20359;-69
2023/05/02 11:38:03;;;;;;;;;;;12.00;90.90;;;;;;4951168;28;20283;-70
2023/05/02 11:40:29;;;;;;;;;;;12.10;90.50;;;;;;4951151;28;19917;-69
2023/05/02 11:42:56;;;;;;;;;;;12.30;90.20;;;;;;4947441;28;20009;-70
2023/05/02 11:45:32;;;;;;;;;;;12.30;90.50;;;;;;4947491;28;20314;-68
2023/05/02 11:47:57;;;;;;;;;;;12.20;90.20;;;;;;4950276;28;20425;-69
2023/05/02 11:50:24;;;;;;;;;;;12.30;90.30;;;;;;4948199;28;19957;-70
2023/05/02 11:52:50;;;;;;;;;;;12.40;87.40;;;;;;4950621;28;20005;-69
2023/05/02 11:55:16;;;;;;;;;;;12.60;86.30;;;;;;4950901;28;20449;-69
2023/05/02 11:57:41;;;;;;;;;;;12.90;84.90;;;;;;4949439;28;20009;-68
2023/05/02 12:00:07;;;;;;;;;;;13.30;83.40;;;;;;4962262;28;19921;-68
2023/05/02 12:02:36;;;;;;;;;;;13.60;82.90;;;;;;4951605;28;19993;-70
2023/05/02 12:05:05;;;;;;;;;;;14.00;79.70;;;;;;4950689;28;19915;-69
2023/05/02 12:07:37;;;;;;;;;;;14.00;78.80;;;;;;4945602;28;19910;-69
2023/05/02 12:10:03;;;;;;;;;;;13.80;77.30;;;;;;4965692;28;19966;-69
2023/05/02 12:12:29;;;;;;;;;;;13.30;78.70;;;;;;4947180;28;20343;-70
2023/05/02 12:14:55;;;;;;;;;;;13.10;80.30;;;;;;4950536;28;20534;-71
2023/05/02 12:17:21;;;;;;;;;;;12.90;80.90;;;;;;4947788;28;19911;-70
2023/05/02 12:19:47;;;;;;;;;;;12.70;81.60;;;;;;4950968;28;19914;-71
2023/05/02 12:22:13;;;;;;;;;;;12.80;79.30;;;;;;4947377;28;20055;-71
2023/05/02 12:24:40;;;;;;;;;;;13.80;77.80;;;;;;4947806;28;19946;-71
2023/05/02 12:27:12;;;;;;;;;;;14.50;74.70;;;;;;4944582;28;19918;-70
2023/05/02 12:29:47;;;;;;;;;;;14.60;71.70;;;;;;4943403;28;19943;-70
2023/05/02 12:32:13;;;;;;;;;;;14.20;71.20;;;;;;4947966;28;19917;-70
2023/05/02 12:34:40;;;;;;;;;;;13.50;73.30;;;;;;4946779;28;20005;-70
2023/05/02 12:37:06;;;;;;;;;;;13.20;74.30;;;;;;4943901;28;20124;-71
2023/05/02 12:39:35;;;;;;;;;;;12.90;75.80;;;;;;4947663;28;19917;-71
2023/05/02 12:42:07;;;;;;;;;;;12.60;76.60;;;;;;4949155;28;19911;-70
2023/05/02 12:44:40;;;;;;;;;;;12.50;77.90;;;;;;4947646;28;20131;-69
2023/05/02 12:47:06;;;;;;;;;;;12.50;78.80;;;;;;4945945;28;19914;-71
2023/05/02 12:49:32;;;;;;;;;;;13.00;76.60;;;;;;4951242;28;19965;-69
2023/05/02 12:51:58;;;;;;;;;;;13.20;75.20;;;;;;4945768;28;20928;-70
2023/05/02 12:54:25;;;;;;;;;;;13.70;74.60;;;;;;4952541;28;20001;-69
2023/05/02 12:56:51;;;;;;;;;;;14.80;71.50;;;;;;4955563;28;20401;-69
2023/05/02 12:59:26;;;;;;;;;;;16.20;68.80;;;;;;4954841;28;19919;-70
2023/05/02 13:01:52;;;;;;;;;;;15.90;67.70;;;;;;4955449;28;19964;-70
2023/05/02 13:04:17;;;;;;;;;;;15.50;68.20;;;;;;4952585;28;19914;-70
2023/05/02 13:06:43;;;;;;;;;;;14.70;71.00;;;;;;4950648;28;19921;-70
2023/05/02 13:09:09;;;;;;;;;;;14.10;72.70;;;;;;4951317;28;20001;-70
2023/05/02 13:11:35;;;;;;;;;;;13.50;74.00;;;;;;4955896;28;19907;-70
2023/05/02 13:14:03;;;;;;;;;;;13.00;75.90;;;;;;4938105;28;20008;-70
2023/05/02 13:16:30;;;;;;;;;;;12.70;77.70;;;;;;4954390;28;20449;-69
2023/05/02 13:18:55;;;;;;;;;;;12.50;78.80;;;;;;4954771;28;19915;-68
2023/05/02 13:21:21;;;;;;;;;;;12.40;79.60;;;;;;4950771;28;19920;-69
2023/05/02 13:23:49;;;;;;;;;;;12.30;80.60;;;;;;4952546;28;20000;-69
2023/05/02 13:26:15;;;;;;;;;;;12.20;80.20;;;;;;4956858;28;19922;-69
2023/05/02 13:28:40;;;;;;;;;;;12.20;81.00;;;;;;4956998;28;19910;-69
2023/05/02 13:31:06;;;;;;;;;;;12.10;82.00;;;;;;4952752;28;19926;-68
2023/05/02 13:33:32;;;;;;;;;;;12.30;82.40;;;;;;4955803;28;19910;-69
2023/05/02 13:35:58;;;;;;;;;;;12.20;81.20;;;;;;4951080;28;19924;-69
2023/05/02 13:38:24;;;;;;;;;;;12.10;81.70;;;;;;4949677;28;20009;-68
2023/05/02 13:40:49;;;;;;;;;;;11.90;82.00;;;;;;4950166;28;20625;-69
2023/05/02 13:43:15;;;;;;;;;;;11.90;82.70;;;;;;4960506;28;19970;-70
2023/05/02 13:45:41;;;;;;;;;;;11.60;82.90;;;;;;4951890;28;19903;-69
2023/05/02 13:48:06;;;;;;;;;;;11.60;83.10;;;;;;4953048;28;19965;-70
2023/05/02 13:50:36;;;;;;;;;;;11.50;82.80;;;;;;4952920;28;19946;-70
2023/05/02 13:53:02;;;;;;;;;;;11.40;83.90;;;;;;4961257;28;19911;-70
2023/05/02 13:55:28;;;;;;;;;;;11.40;84.70;;;;;;4951357;28;20417;-69
2023/05/02 13:57:53;;;;;;;;;;;11.40;84.90;;;;;;4954772;28;19985;-69
2023/05/02 14:00:19;;;;;;;;;;;11.40;85.90;;;;;;4948472;28;20378;-69
2023/05/02 14:02:47;;;;;;;;;;;11.40;86.00;;;;;;4953240;28;19922;-69
2023/05/02 14:05:13;;;;;;;;;;;11.30;86.40;;;;;;4954691;28;19910;-70
2023/05/02 14:07:38;;;;;;;;;;;11.40;86.70;;;;;;4952532;28;19906;-69
2023/05/02 14:10:04;;;;;;;;;;;11.30;87.00;;;;;;4954481;28;19911;-70
2023/05/02 14:12:31;;;;;;;;;;;11.30;87.90;;;;;;4956353;28;20396;-69
2023/05/02 14:14:56;;;;;;;;;;;11.30;88.40;;;;;;4950734;28;19928;-69
2023/05/02 14:17:24;;;;;;;;;;;11.30;88.50;;;;;;4951455;28;19933;-70
2023/05/02 14:19:50;;;;;;;;;;;11.40;88.70;;;;;;4956833;28;20453;-69
2023/05/02 14:22:16;;;;;;;;;;;11.50;88.40;;;;;;4949791;28;19922;-71